createdAt,value
2017-12-20T00:01:49.273Z,15.65
2017-12-20T00:04:16.383Z,16.85
2017-12-20T00:06:42.730Z,16.12
2017-12-20T00:09:09.090Z,19.20
2017-12-20T00:11:36.167Z,17.05
2017-12-20T00:14:02.519Z,18.48
2017-12-20T00:16:28.855Z,17.30
2017-12-20T00:18:55.179Z,18.65
2017-12-20T00:21:21.520Z,18.60
2017-12-20T00:23:47.843Z,16.10
2017-12-20T00:26:14.187Z,16.87
2017-12-20T00:28:40.515Z,17.25
2017-12-20T00:31:06.867Z,16.90
2017-12-20T00:33:33.227Z,19.12
2017-12-20T00:36:00.295Z,19.67
2017-12-20T00:38:26.648Z,18.65
2017-12-20T00:40:52.994Z,17.23
2017-12-20T00:43:19.329Z,22.02
2017-12-20T00:45:45.667Z,18.87
2017-12-20T00:48:12.039Z,18.92
2017-12-20T00:50:38.380Z,17.42
2017-12-20T00:53:04.751Z,22.00
2017-12-20T00:55:31.082Z,18.85
2017-12-20T00:57:57.668Z,20.58
2017-12-20T01:00:24.744Z,20.85
2017-12-20T01:02:51.099Z,15.30
2017-12-20T01:05:17.448Z,24.65
2017-12-20T01:07:43.844Z,18.60
2017-12-20T01:10:10.194Z,20.88
2017-12-20T01:12:36.558Z,18.52
2017-12-20T01:15:03.668Z,20.00
2017-12-20T01:17:30.008Z,19.10
2017-12-20T01:19:56.512Z,16.05
2017-12-20T01:22:22.924Z,19.52
2017-12-20T01:24:50.039Z,17.67
2017-12-20T01:27:16.419Z,21.27
2017-12-20T01:29:42.759Z,20.35
2017-12-20T01:32:09.116Z,19.67
2017-12-20T01:34:35.442Z,16.83
2017-12-20T01:37:01.779Z,20.27
2017-12-20T01:39:28.171Z,18.40
2017-12-20T01:41:54.632Z,16.87
2017-12-20T01:44:20.998Z,15.90
2017-12-20T01:46:47.356Z,17.15
2017-12-20T01:49:13.746Z,17.27
2017-12-20T01:51:40.127Z,15.80
2017-12-20T01:54:06.485Z,20.27
2017-12-20T01:56:32.855Z,16.73
2017-12-20T01:58:59.223Z,21.40
2017-12-20T02:01:25.571Z,15.52
2017-12-20T02:03:52.639Z,23.90
2017-12-20T02:06:19.006Z,16.62
2017-12-20T02:08:45.363Z,18.48
2017-12-20T02:11:12.450Z,16.90
2017-12-20T02:13:38.779Z,19.27
2017-12-20T02:16:05.140Z,18.92
2017-12-20T02:18:31.539Z,18.98
2017-12-20T02:20:58.080Z,22.55
2017-12-20T02:23:24.467Z,25.77
2017-12-20T02:25:50.840Z,23.17
2017-12-20T02:28:17.230Z,21.98
2017-12-20T02:30:43.607Z,20.20
2017-12-20T02:33:22.248Z,21.98
2017-12-20T02:35:48.696Z,20.15
2017-12-20T02:38:27.216Z,24.48
2017-12-20T02:40:53.610Z,22.05
2017-12-20T02:43:20.079Z,21.90
2017-12-20T02:45:46.468Z,21.62
2017-12-20T02:48:12.859Z,20.90
2017-12-20T02:50:39.238Z,20.58
2017-12-20T02:53:05.635Z,23.60
2017-12-20T02:55:32.039Z,22.00
2017-12-20T02:57:58.436Z,23.10
2017-12-20T03:00:24.816Z,22.23
2017-12-20T03:02:51.211Z,23.42
2017-12-20T03:05:17.580Z,22.02
2017-12-20T03:07:43.951Z,26.05
2017-12-20T03:10:10.328Z,26.05
2017-12-20T03:12:36.768Z,23.50
2017-12-20T03:15:03.200Z,20.98
2017-12-20T03:17:29.576Z,25.20
2017-12-20T03:19:56.670Z,22.70
2017-12-20T03:22:23.056Z,21.17
2017-12-20T03:24:50.140Z,22.70
2017-12-20T03:27:16.484Z,24.45
2017-12-20T03:29:42.823Z,20.00
2017-12-20T03:32:09.199Z,25.67
2017-12-20T03:34:36.296Z,26.23
2017-12-20T03:37:02.714Z,22.60
2017-12-20T03:39:29.048Z,22.52
2017-12-20T03:41:55.395Z,22.08
2017-12-20T03:44:21.776Z,22.87
2017-12-20T03:46:48.858Z,22.62
2017-12-20T03:49:15.243Z,27.42
2017-12-20T03:51:42.370Z,28.90
2017-12-20T03:54:09.843Z,24.02
2017-12-20T03:56:36.196Z,24.65
2017-12-20T03:59:03.292Z,24.65
2017-12-20T04:01:29.999Z,26.08
2017-12-20T04:03:56.347Z,21.73
2017-12-20T04:06:22.780Z,25.73
2017-12-20T04:08:49.132Z,24.45
2017-12-20T04:11:15.479Z,26.77
2017-12-20T04:13:41.864Z,25.92
2017-12-20T04:16:08.212Z,32.50
2017-12-20T04:18:34.550Z,29.95
2017-12-20T04:21:01.445Z,24.63
2017-12-20T04:23:28.588Z,24.90
2017-12-20T04:25:54.915Z,23.05
2017-12-20T04:28:22.034Z,26.20
2017-12-20T04:30:48.416Z,25.98
2017-12-20T04:33:15.528Z,23.15
2017-12-20T04:35:41.850Z,21.67
2017-12-20T04:38:08.172Z,28.10
2017-12-20T04:40:34.515Z,27.23
2017-12-20T04:43:00.863Z,24.50
2017-12-20T04:45:27.215Z,26.98
2017-12-20T04:47:55.342Z,21.17
2017-12-20T04:50:21.675Z,24.75
2017-12-20T04:52:48.040Z,20.27
2017-12-20T04:55:15.103Z,23.87
2017-12-20T04:57:43.844Z,21.08
2017-12-20T05:00:10.175Z,26.92
2017-12-20T05:02:36.531Z,21.95
2017-12-20T05:05:04.370Z,22.60
2017-12-20T05:07:30.718Z,25.10
2017-12-20T05:09:57.052Z,18.62
2017-12-20T05:12:23.423Z,23.15
2017-12-20T05:14:50.511Z,21.10
2017-12-20T05:17:16.870Z,23.27
2017-12-20T05:19:43.364Z,25.17
2017-12-20T05:22:09.703Z,23.20
2017-12-20T05:24:36.047Z,25.55
2017-12-20T05:27:02.403Z,20.73
2017-12-20T05:29:28.743Z,20.95
2017-12-20T05:31:55.860Z,24.23
2017-12-20T05:34:22.199Z,16.92
2017-12-20T05:36:48.575Z,21.98
2017-12-20T05:39:14.945Z,23.48
2017-12-20T05:41:41.284Z,21.17
2017-12-20T05:44:07.628Z,27.45
2017-12-20T05:46:35.011Z,25.00
2017-12-20T05:49:02.120Z,23.23
2017-12-20T05:51:28.475Z,22.15
2017-12-20T05:53:55.539Z,23.08
2017-12-20T05:56:21.879Z,22.62
2017-12-20T05:58:48.218Z,23.17
2017-12-20T06:01:14.546Z,19.25
2017-12-20T06:03:43.780Z,25.42
2017-12-20T06:06:10.107Z,22.42
2017-12-20T06:08:36.452Z,25.70
2017-12-20T06:11:02.790Z,22.87
2017-12-20T06:13:29.143Z,24.92
2017-12-20T06:15:55.493Z,21.42
2017-12-20T06:18:21.868Z,19.70
2017-12-20T06:20:48.223Z,22.02
2017-12-20T06:23:15.328Z,18.95
2017-12-20T06:25:41.647Z,21.60
2017-12-20T06:28:08.000Z,19.77
2017-12-20T06:30:34.342Z,19.60
2017-12-20T06:33:00.704Z,19.62
2017-12-20T06:35:27.839Z,19.30
2017-12-20T06:37:54.159Z,22.02
2017-12-20T06:40:20.503Z,22.13
2017-12-20T06:42:46.850Z,24.48
2017-12-20T06:45:14.927Z,20.12
2017-12-20T06:47:41.995Z,24.45
2017-12-20T06:50:08.331Z,25.33
2017-12-20T06:52:34.689Z,22.40
2017-12-20T06:55:01.017Z,31.20
2017-12-20T06:57:27.366Z,25.67
2017-12-20T06:59:53.708Z,23.02
2017-12-20T07:02:20.046Z,21.55
2017-12-20T07:04:47.129Z,24.80
2017-12-20T07:07:13.479Z,30.77
2017-12-20T07:09:39.853Z,29.85
2017-12-20T07:12:06.931Z,35.15
2017-12-20T07:14:33.263Z,27.05
2017-12-20T07:16:59.596Z,20.65
2017-12-20T07:19:25.982Z,22.13
2017-12-20T07:21:52.311Z,26.87
2017-12-20T07:24:18.642Z,24.12
2017-12-20T07:26:44.971Z,21.83
2017-12-20T07:29:11.339Z,21.80
2017-12-20T07:31:38.419Z,21.83
2017-12-20T07:34:04.795Z,25.12
2017-12-20T07:36:31.143Z,27.65
2017-12-20T07:38:58.315Z,26.12
2017-12-20T07:41:24.684Z,32.80
2017-12-20T07:43:51.039Z,21.70
2017-12-20T07:46:17.408Z,23.55
2017-12-20T07:48:43.760Z,19.35
2017-12-20T07:51:10.087Z,20.10
2017-12-20T07:53:36.491Z,21.05
2017-12-20T07:56:03.575Z,22.45
2017-12-20T07:58:29.911Z,24.20
2017-12-20T08:00:56.264Z,21.10
2017-12-20T08:03:22.623Z,22.25
2017-12-20T08:05:49.003Z,18.83
2017-12-20T08:08:15.331Z,17.15
2017-12-20T08:10:41.671Z,15.02
2017-12-20T08:13:08.055Z,15.57
2017-12-20T08:15:35.134Z,15.88
2017-12-20T08:18:01.467Z,15.98
2017-12-20T08:20:27.809Z,17.85
2017-12-20T08:22:54.135Z,20.42
2017-12-20T08:25:20.549Z,14.95
2017-12-20T08:27:46.928Z,16.30
2017-12-20T08:30:13.339Z,15.45
2017-12-20T08:32:39.673Z,16.58
2017-12-20T08:35:06.067Z,16.48
2017-12-20T08:37:32.403Z,18.37
2017-12-20T08:39:58.734Z,17.52
2017-12-20T08:42:25.096Z,17.33
2017-12-20T08:44:51.427Z,17.20
2017-12-20T08:47:17.787Z,17.60
2017-12-20T08:49:44.145Z,16.90
2017-12-20T08:52:11.216Z,18.33
2017-12-20T08:54:37.567Z,17.67
2017-12-20T08:57:03.911Z,21.05
2017-12-20T08:59:30.239Z,15.45
2017-12-20T09:01:56.595Z,15.25
2017-12-20T09:04:22.959Z,16.60
2017-12-20T09:06:50.055Z,14.60
2017-12-20T09:09:16.424Z,14.00
2017-12-20T09:11:42.785Z,14.57
2017-12-20T09:14:09.176Z,11.15
2017-12-20T09:16:35.503Z,13.73
2017-12-20T09:19:01.832Z,16.60
2017-12-20T09:21:28.200Z,15.85
2017-12-20T09:23:56.329Z,17.25
2017-12-20T09:26:22.651Z,14.27
2017-12-20T09:28:48.983Z,17.45
2017-12-20T09:31:15.318Z,16.30
2017-12-20T09:33:42.409Z,17.27
2017-12-20T09:36:09.496Z,12.43
2017-12-20T09:38:35.847Z,12.82
2017-12-20T09:41:02.198Z,13.38
2017-12-20T09:43:28.542Z,15.18
2017-12-20T09:45:54.859Z,16.15
2017-12-20T09:48:21.203Z,15.80
2017-12-20T09:50:47.567Z,15.00
2017-12-20T09:53:13.903Z,13.90
2017-12-20T09:55:40.286Z,13.02
2017-12-20T09:58:06.619Z,14.18
2017-12-20T10:00:32.955Z,12.32
2017-12-20T10:03:00.059Z,13.93
2017-12-20T10:05:26.424Z,9.32
2017-12-20T10:07:52.782Z,10.07
2017-12-20T10:10:20.935Z,9.32
2017-12-20T10:12:47.331Z,11.45
2017-12-20T10:15:13.702Z,9.70
2017-12-20T10:17:40.079Z,10.73
2017-12-20T10:20:06.487Z,10.02
2017-12-20T10:22:32.833Z,8.05
2017-12-20T10:24:59.166Z,7.45
2017-12-20T10:27:25.528Z,6.57
2017-12-20T10:29:51.915Z,7.35
2017-12-20T10:32:18.288Z,7.93
2017-12-20T10:34:44.651Z,6.72
2017-12-20T10:37:11.000Z,7.53
2017-12-20T10:39:37.358Z,8.57
2017-12-20T10:42:05.459Z,6.95
2017-12-20T10:44:31.854Z,7.43
2017-12-20T10:46:59.270Z,6.93
2017-12-20T10:49:25.627Z,6.82
2017-12-20T10:51:51.997Z,8.07
2017-12-20T10:54:18.352Z,6.55
2017-12-20T10:56:44.707Z,8.60
2017-12-20T10:59:11.088Z,6.60
2017-12-20T11:01:38.199Z,6.80
2017-12-20T11:04:04.571Z,8.45
2017-12-20T11:06:30.947Z,7.47
2017-12-20T11:08:57.311Z,7.85
2017-12-20T11:11:24.383Z,5.75
2017-12-20T11:13:50.715Z,8.18
2017-12-20T11:16:17.075Z,7.28
2017-12-20T11:18:43.407Z,6.87
2017-12-20T11:21:09.806Z,7.18
2017-12-20T11:23:36.914Z,10.25
2017-12-20T11:26:03.286Z,6.85
2017-12-20T11:28:30.386Z,7.62
2017-12-20T11:30:56.796Z,7.62
2017-12-20T11:33:23.124Z,6.45
2017-12-20T11:35:49.496Z,8.68
2017-12-20T11:38:15.867Z,7.50
2017-12-20T11:40:44.012Z,7.07
2017-12-20T11:43:10.364Z,6.53
2017-12-20T11:45:37.474Z,6.93
2017-12-20T11:48:03.851Z,6.07
2017-12-20T11:50:30.936Z,6.05
2017-12-20T11:52:57.259Z,5.75
2017-12-20T11:55:23.640Z,11.65
2017-12-20T11:57:50.767Z,7.85
2017-12-20T12:00:17.147Z,6.22
2017-12-20T12:02:43.519Z,6.12
2017-12-20T12:05:09.866Z,6.07
2017-12-20T12:07:36.211Z,5.57
2017-12-20T12:10:02.584Z,6.18
2017-12-20T12:12:28.971Z,7.70
2017-12-20T12:14:55.309Z,5.80
2017-12-20T12:17:21.659Z,5.93
2017-12-20T12:19:48.752Z,6.07
2017-12-20T12:22:15.102Z,5.15
2017-12-20T12:24:41.512Z,4.90
2017-12-20T12:27:07.874Z,4.45
2017-12-20T12:29:34.250Z,4.97
2017-12-20T12:32:00.598Z,4.00
2017-12-20T12:34:26.933Z,3.92
2017-12-20T12:36:53.306Z,3.97
2017-12-20T12:39:19.687Z,5.43
2017-12-20T12:41:46.054Z,5.57
2017-12-20T12:44:12.412Z,5.18
2017-12-20T12:46:39.759Z,4.60
2017-12-20T12:49:06.115Z,4.37
2017-12-20T12:51:33.191Z,4.97
2017-12-20T12:53:59.567Z,4.57
2017-12-20T12:56:25.974Z,4.97
2017-12-20T12:58:52.330Z,5.32
2017-12-20T13:01:20.447Z,6.37
2017-12-20T13:03:46.817Z,24.42
2017-12-20T13:06:13.229Z,13.57
2017-12-20T13:08:39.603Z,5.12
2017-12-20T13:11:06.609Z,4.35
2017-12-20T13:13:32.966Z,4.22
2017-12-20T13:15:59.326Z,4.80
2017-12-20T13:18:25.737Z,7.28
2017-12-20T13:20:52.072Z,6.97
2017-12-20T13:23:18.423Z,5.80
2017-12-20T13:25:45.520Z,4.45
2017-12-20T13:28:11.886Z,4.62
2017-12-20T13:30:38.219Z,4.07
2017-12-20T13:33:04.567Z,5.22
2017-12-20T13:35:32.692Z,5.30
2017-12-20T13:37:59.011Z,4.28
2017-12-20T13:40:25.383Z,4.43
2017-12-20T13:42:52.496Z,4.12
2017-12-20T13:45:18.852Z,5.35
2017-12-20T13:47:45.257Z,5.32
2017-12-20T13:50:11.616Z,5.95
2017-12-20T13:52:38.011Z,6.10
2017-12-20T13:55:04.411Z,7.80
2017-12-20T13:57:30.776Z,9.57
2017-12-20T13:59:57.156Z,5.37
2017-12-20T14:02:23.548Z,6.12
2017-12-20T14:04:49.952Z,5.72
2017-12-20T14:07:17.077Z,5.62
2017-12-20T14:09:43.428Z,6.65
2017-12-20T14:12:10.523Z,7.97
2017-12-20T14:14:36.863Z,5.50
2017-12-20T14:17:03.239Z,5.30
2017-12-20T14:19:29.592Z,5.93
2017-12-20T14:21:56.013Z,5.40
2017-12-20T14:24:23.084Z,6.22
2017-12-20T14:26:49.451Z,5.20
2017-12-20T14:29:15.799Z,6.93
2017-12-20T14:31:42.127Z,6.20
2017-12-20T14:34:08.503Z,6.43
2017-12-20T14:36:35.584Z,7.90
2017-12-20T14:39:01.971Z,6.28
2017-12-20T14:41:29.035Z,6.53
2017-12-20T14:43:55.371Z,5.97
2017-12-20T14:46:21.712Z,7.18
2017-12-20T14:48:48.055Z,8.52
2017-12-20T14:51:15.189Z,6.20
2017-12-20T14:53:41.546Z,7.30
2017-12-20T14:56:07.932Z,6.25
2017-12-20T14:58:35.112Z,7.85
2017-12-20T15:03:18.814Z,7.55
2017-12-20T15:05:45.923Z,6.82
2017-12-20T15:08:12.255Z,8.15
2017-12-20T15:10:38.611Z,11.32
2017-12-20T15:13:04.975Z,7.62
2017-12-20T15:15:33.086Z,6.78
2017-12-20T15:17:59.441Z,6.97
2017-12-20T15:20:25.845Z,6.15
2017-12-20T15:22:52.204Z,9.00
2017-12-20T15:25:18.572Z,11.02
2017-12-20T15:27:45.659Z,11.10
2017-12-20T15:30:12.038Z,10.25
2017-12-20T15:32:38.416Z,8.32
2017-12-20T15:35:04.797Z,9.15
2017-12-20T15:37:31.184Z,6.95
2017-12-20T15:39:57.536Z,17.55
2017-12-20T15:42:23.930Z,35.35
2017-12-20T15:44:50.291Z,12.18
2017-12-20T15:47:16.683Z,11.75
2017-12-20T15:49:43.775Z,13.15
2017-12-20T15:52:10.164Z,7.45
2017-12-20T15:54:37.255Z,6.40
2017-12-20T15:57:03.659Z,6.78
2017-12-20T15:59:30.022Z,6.72
2017-12-20T16:01:56.436Z,8.45
2017-12-20T16:04:22.788Z,7.82
2017-12-20T16:06:49.605Z,9.70
2017-12-20T16:09:15.954Z,8.32
2017-12-20T16:11:42.328Z,10.00
2017-12-20T16:14:08.708Z,33.45
2017-12-20T16:16:35.116Z,10.77
2017-12-20T16:19:01.455Z,13.75
2017-12-20T16:21:27.835Z,10.68
2017-12-20T16:23:54.211Z,13.98
2017-12-20T16:26:20.579Z,7.15
2017-12-20T16:28:47.662Z,9.00
2017-12-20T16:31:14.035Z,8.38
2017-12-20T16:33:40.426Z,8.98
2017-12-20T16:36:06.791Z,10.15
2017-12-20T16:38:33.154Z,8.50
2017-12-20T16:40:59.535Z,49.05
2017-12-20T16:43:26.663Z,13.02
2017-12-20T16:45:53.013Z,14.68
2017-12-20T16:48:20.114Z,12.20
2017-12-20T16:50:46.476Z,13.60
2017-12-20T16:53:12.871Z,37.55
2017-12-20T16:55:39.242Z,20.85
2017-12-20T16:58:06.379Z,17.65
2017-12-20T17:00:32.795Z,9.23
2017-12-20T17:02:59.172Z,29.00
2017-12-20T17:05:25.555Z,9.75
2017-12-20T17:07:51.902Z,7.90
2017-12-20T17:10:18.311Z,6.78
2017-12-20T17:12:44.655Z,11.82
2017-12-20T17:15:11.038Z,9.32
2017-12-20T17:17:38.139Z,8.85
2017-12-20T17:20:04.519Z,9.88
2017-12-20T17:22:31.652Z,10.65
2017-12-20T17:24:58.287Z,10.05
2017-12-20T17:27:24.675Z,7.68
2017-12-20T17:29:51.012Z,10.05
2017-12-20T17:32:17.407Z,10.07
2017-12-20T17:34:44.510Z,10.63
2017-12-20T17:37:10.859Z,10.25
2017-12-20T17:39:37.209Z,10.15
2017-12-20T17:42:04.306Z,9.38
2017-12-20T17:44:30.710Z,15.68
2017-12-20T17:46:57.088Z,13.98
2017-12-20T17:49:23.431Z,9.52
2017-12-20T17:51:49.788Z,9.57
2017-12-20T17:54:16.855Z,7.55
2017-12-20T17:56:43.226Z,10.88
2017-12-20T17:59:09.571Z,8.40
2017-12-20T18:01:35.955Z,8.10
2017-12-20T18:04:02.352Z,7.95
2017-12-20T18:06:29.788Z,6.93
2017-12-20T18:08:56.435Z,8.90
2017-12-20T18:11:22.866Z,7.53
2017-12-20T18:13:49.300Z,9.95
2017-12-20T18:16:16.387Z,9.88
2017-12-20T18:18:42.798Z,10.88
2017-12-20T18:21:09.903Z,11.63
2017-12-20T18:23:36.262Z,10.45
2017-12-20T18:26:02.667Z,11.25
2017-12-20T18:28:29.202Z,11.02
2017-12-20T18:30:55.576Z,11.40
2017-12-20T18:33:22.685Z,11.38
2017-12-20T18:35:49.167Z,14.52
2017-12-20T18:38:16.255Z,15.95
2017-12-20T18:40:42.633Z,10.77
2017-12-20T18:43:08.991Z,10.48
2017-12-20T18:45:36.092Z,9.38
2017-12-20T18:48:02.483Z,9.55
2017-12-20T18:50:28.827Z,7.53
2017-12-20T18:52:55.175Z,8.10
2017-12-20T18:55:21.542Z,7.78
2017-12-20T18:57:47.943Z,9.95
2017-12-20T19:00:14.307Z,8.45
2017-12-20T19:02:40.723Z,10.13
2017-12-20T19:05:07.099Z,10.18
2017-12-20T19:07:34.231Z,9.80
2017-12-20T19:10:01.342Z,9.27
2017-12-20T19:12:28.711Z,8.85
2017-12-20T19:14:55.115Z,10.02
2017-12-20T19:17:21.508Z,16.62
2017-12-20T19:19:47.863Z,12.85
2017-12-20T19:22:15.164Z,11.93
2017-12-20T19:24:41.527Z,11.05
2017-12-20T19:27:09.643Z,35.92
2017-12-20T19:29:36.010Z,31.40
2017-12-20T19:32:02.403Z,25.92
2017-12-20T19:34:28.776Z,18.23
2017-12-20T19:36:55.176Z,9.77
2017-12-20T19:39:21.559Z,12.07
2017-12-20T19:41:47.892Z,16.35
2017-12-20T19:44:14.979Z,11.80
2017-12-20T19:46:41.325Z,12.85
2017-12-20T19:49:07.718Z,14.30
2017-12-20T19:51:34.079Z,12.27
2017-12-20T19:54:00.425Z,8.40
2017-12-20T19:56:26.766Z,12.35
2017-12-20T19:58:53.107Z,11.00
2017-12-20T20:01:19.753Z,11.80
2017-12-20T20:03:46.133Z,16.87
2017-12-20T20:06:12.462Z,17.67
2017-12-20T20:08:38.792Z,19.92
2017-12-20T20:11:05.132Z,15.70
2017-12-20T20:13:31.470Z,18.10
2017-12-20T20:15:57.836Z,17.62
2017-12-20T20:18:24.183Z,21.87
2017-12-20T20:20:51.251Z,27.10
2017-12-20T20:23:18.323Z,18.65
2017-12-20T20:25:44.663Z,16.23
2017-12-20T20:28:11.006Z,15.32
2017-12-20T20:30:37.360Z,19.02
2017-12-20T20:33:03.715Z,19.30
2017-12-20T20:35:30.042Z,21.65
2017-12-20T20:37:56.362Z,18.15
2017-12-20T20:40:22.682Z,19.08
2017-12-20T20:42:49.052Z,22.85
2017-12-20T20:45:16.155Z,110.63
2017-12-20T20:47:42.491Z,98.55
2017-12-20T20:50:08.843Z,17.08
2017-12-20T20:52:35.183Z,17.60
2017-12-20T20:55:01.523Z,20.75
2017-12-20T20:57:27.883Z,20.45
2017-12-20T20:59:55.982Z,20.17
2017-12-20T21:02:22.323Z,23.00
2017-12-20T21:04:48.668Z,18.30
2017-12-20T21:07:15.023Z,17.45
2017-12-20T21:09:41.343Z,20.25
2017-12-20T21:12:07.675Z,18.80
2017-12-20T21:14:34.012Z,19.17
2017-12-20T21:17:00.336Z,21.37
2017-12-20T21:19:26.664Z,29.45
2017-12-20T21:21:53.040Z,21.25
2017-12-20T21:24:20.135Z,23.30
2017-12-20T21:26:46.476Z,20.92
2017-12-20T21:29:13.551Z,21.33
2017-12-20T21:31:40.622Z,25.15
2017-12-20T21:34:07.032Z,25.33
2017-12-20T21:36:34.139Z,23.23
2017-12-20T21:39:00.490Z,25.90
2017-12-20T21:41:26.903Z,45.30
2017-12-20T21:43:53.259Z,50.65
2017-12-20T21:46:19.590Z,19.20
2017-12-20T21:48:45.978Z,20.88
2017-12-20T21:51:12.327Z,27.62
2017-12-20T21:53:38.768Z,24.52
2017-12-20T21:56:05.192Z,23.42
2017-12-20T21:58:31.577Z,21.80
2017-12-20T22:00:58.655Z,21.58
2017-12-20T22:03:25.006Z,28.45
2017-12-20T22:05:51.384Z,25.95
2017-12-20T22:08:18.470Z,37.65
2017-12-20T22:10:44.859Z,26.20
2017-12-20T22:13:11.241Z,28.95
2017-12-20T22:15:37.583Z,20.62
2017-12-20T22:18:03.920Z,27.05
2017-12-20T22:20:30.291Z,29.12
2017-12-20T22:22:57.453Z,28.95
2017-12-20T22:25:24.522Z,47.05
2017-12-20T22:27:50.851Z,31.27
2017-12-20T22:30:17.184Z,28.50
2017-12-20T22:32:44.539Z,23.60
2017-12-20T22:35:10.915Z,30.42
2017-12-20T22:37:37.268Z,26.52
2017-12-20T22:40:04.351Z,32.00
2017-12-20T22:42:31.439Z,32.00
2017-12-20T22:44:57.779Z,42.67
2017-12-20T22:47:24.147Z,31.67
2017-12-20T22:49:50.539Z,34.08
2017-12-20T22:52:16.907Z,27.30
2017-12-20T22:54:43.267Z,38.95
2017-12-20T22:57:09.623Z,28.70
2017-12-20T22:59:35.997Z,28.67
2017-12-20T23:02:03.063Z,29.83
2017-12-20T23:04:29.399Z,33.83
2017-12-20T23:06:55.787Z,32.28
2017-12-20T23:09:22.155Z,31.98
2017-12-20T23:11:48.501Z,33.47
2017-12-20T23:14:14.829Z,28.92
2017-12-20T23:16:41.187Z,34.28
2017-12-20T23:19:07.590Z,30.50
2017-12-20T23:21:33.948Z,25.70
2017-12-20T23:24:00.300Z,32.88
2017-12-20T23:26:26.645Z,33.40
2017-12-20T23:28:52.986Z,31.87
2017-12-20T23:31:20.124Z,30.30
2017-12-20T23:33:46.465Z,26.60
2017-12-20T23:36:13.107Z,28.30
2017-12-20T23:38:40.222Z,31.00
2017-12-20T23:41:06.636Z,23.10
2017-12-20T23:43:32.983Z,27.52
2017-12-20T23:45:59.347Z,28.60
2017-12-20T23:48:26.456Z,24.85
2017-12-20T23:50:52.808Z,25.77
2017-12-20T23:53:19.163Z,24.92
2017-12-20T23:55:46.271Z,24.87
2017-12-20T23:58:12.611Z,22.30
